sensor_id;sensor_type;location;lat;lon;timestamp;P1;durP1;ratioP1;P2;durP2;ratioP2
57301;SDS011;43149;50.974;18.224;2024-02-26T12:59:23;13.60;;;3.50;;
57301;SDS011;43149;50.974;18.224;2024-02-26T13:09:06;51.30;;;23.00;;
57301;SDS011;43149;50.974;18.224;2024-02-26T13:18:50;2.80;;;2.00;;
57301;SDS011;43149;50.974;18.224;2024-02-26T13:28:34;6.00;;;2.20;;
57301;SDS011;43149;50.974;18.224;2024-02-26T13:38:18;27.20;;;4.00;;
57301;SDS011;43149;50.974;18.224;2024-02-26T13:48:02;8.60;;;2.00;;
57301;SDS011;43149;50.974;18.224;2024-02-26T13:57:49;3.40;;;2.50;;
57301;SDS011;43149;50.974;18.224;2024-02-26T14:07:34;2.60;;;2.20;;
57301;SDS011;43149;50.974;18.224;2024-02-26T14:17:21;1.90;;;1.70;;
57301;SDS011;43149;50.974;18.224;2024-02-26T14:27:09;1.60;;;1.50;;
57301;SDS011;43149;50.974;18.224;2024-02-26T14:36:58;7.70;;;3.40;;
57301;SDS011;43149;50.974;18.224;2024-02-26T14:46:41;1.00;;;1.00;;
57301;SDS011;43149;50.974;18.224;2024-02-26T14:56:27;39.50;;;2.70;;
57301;SDS011;43149;50.974;18.224;2024-02-26T15:06:09;3.00;;;1.50;;
57301;SDS011;43149;50.974;18.224;2024-02-26T15:15:52;19.70;;;7.70;;
57301;SDS011;43149;50.974;18.224;2024-02-26T15:25:35;19.40;;;6.90;;
57301;SDS011;43149;50.974;18.224;2024-02-26T15:35:21;3.60;;;1.50;;
57301;SDS011;43149;50.974;18.224;2024-02-26T15:45:04;12.90;;;7.40;;
57301;SDS011;43149;50.974;18.224;2024-02-26T15:54:47;20.10;;;11.70;;
57301;SDS011;43149;50.974;18.224;2024-02-26T16:04:36;20.40;;;6.60;;
57301;SDS011;43149;50.974;18.224;2024-02-26T16:07:02;26.00;;;11.70;;
57301;SDS011;43149;50.974;18.224;2024-02-26T16:27:09;15.50;;;8.50;;
57301;SDS011;43149;50.974;18.224;2024-02-26T16:36:52;44.60;;;21.00;;
57301;SDS011;43149;50.974;18.224;2024-02-26T16:41:43;120.70;;;45.90;;
57301;SDS011;43149;50.974;18.224;2024-02-26T16:51:26;43.70;;;22.50;;
57301;SDS011;43149;50.974;18.224;2024-02-26T17:01:09;38.90;;;19.60;;
57301;SDS011;43149;50.974;18.224;2024-02-26T17:11:01;42.10;;;18.60;;
57301;SDS011;43149;50.974;18.224;2024-02-26T17:20:47;53.50;;;22.50;;
57301;SDS011;43149;50.974;18.224;2024-02-26T17:30:34;44.40;;;20.00;;
57301;SDS011;43149;50.974;18.224;2024-02-26T17:40:17;27.90;;;14.60;;
57301;SDS011;43149;50.974;18.224;2024-02-26T17:50:01;43.60;;;13.00;;
57301;SDS011;43149;50.974;18.224;2024-02-26T17:59:43;187.20;;;59.70;;
57301;SDS011;43149;50.974;18.224;2024-02-26T18:09:26;152.00;;;59.90;;
57301;SDS011;43149;50.974;18.224;2024-02-26T18:19:12;100.40;;;31.00;;
57301;SDS011;43149;50.974;18.224;2024-02-26T18:28:56;28.10;;;11.30;;
57301;SDS011;43149;50.974;18.224;2024-02-26T18:38:41;15.50;;;8.70;;
57301;SDS011;43149;50.974;18.224;2024-02-26T18:48:26;16.70;;;6.90;;
57301;SDS011;43149;50.974;18.224;2024-02-26T18:58:16;8.30;;;6.30;;
57301;SDS011;43149;50.974;18.224;2024-02-26T19:07:58;24.30;;;11.30;;
57301;SDS011;43149;50.974;18.224;2024-02-26T19:17:47;14.40;;;8.20;;
57301;SDS011;43149;50.974;18.224;2024-02-26T19:27:34;18.40;;;9.80;;
57301;SDS011;43149;50.974;18.224;2024-02-26T19:37:16;37.70;;;18.10;;
57301;SDS011;43149;50.974;18.224;2024-02-26T19:47:03;15.40;;;9.90;;
57301;SDS011;43149;50.974;18.224;2024-02-26T19:56:47;16.50;;;9.60;;
57301;SDS011;43149;50.974;18.224;2024-02-26T20:06:42;24.10;;;11.50;;
57301;SDS011;43149;50.974;18.224;2024-02-26T20:16:31;18.00;;;11.50;;
57301;SDS011;43149;50.974;18.224;2024-02-26T20:26:16;17.80;;;11.00;;
57301;SDS011;43149;50.974;18.224;2024-02-26T20:36:01;19.60;;;8.60;;
57301;SDS011;43149;50.974;18.224;2024-02-26T20:45:45;26.10;;;11.60;;
57301;SDS011;43149;50.974;18.224;2024-02-26T20:55:36;23.90;;;9.70;;
57301;SDS011;43149;50.974;18.224;2024-02-26T21:05:21;22.30;;;14.00;;
57301;SDS011;43149;50.974;18.224;2024-02-26T21:15:07;22.70;;;11.40;;
57301;SDS011;43149;50.974;18.224;2024-02-26T21:24:52;18.00;;;9.40;;
57301;SDS011;43149;50.974;18.224;2024-02-26T21:34:36;13.50;;;7.20;;
57301;SDS011;43149;50.974;18.224;2024-02-26T21:44:18;16.40;;;7.50;;
57301;SDS011;43149;50.974;18.224;2024-02-26T21:54:10;19.00;;;7.00;;
57301;SDS011;43149;50.974;18.224;2024-02-26T22:03:55;20.60;;;9.80;;
57301;SDS011;43149;50.974;18.224;2024-02-26T22:13:37;33.50;;;12.60;;
57301;SDS011;43149;50.974;18.224;2024-02-26T22:23:23;11.70;;;5.80;;
57301;SDS011;43149;50.974;18.224;2024-02-26T22:33:06;32.70;;;11.60;;
57301;SDS011;43149;50.974;18.224;2024-02-26T22:42:48;18.10;;;10.70;;
57301;SDS011;43149;50.974;18.224;2024-02-26T22:52:37;26.60;;;9.90;;
57301;SDS011;43149;50.974;18.224;2024-02-26T23:02:22;7.90;;;6.00;;
57301;SDS011;43149;50.974;18.224;2024-02-26T23:07:13;44.80;;;22.90;;
57301;SDS011;43149;50.974;18.224;2024-02-26T23:16:58;19.90;;;10.10;;
57301;SDS011;43149;50.974;18.224;2024-02-26T23:26:40;17.20;;;8.00;;
57301;SDS011;43149;50.974;18.224;2024-02-26T23:36:23;8.10;;;5.60;;
57301;SDS011;43149;50.974;18.224;2024-02-26T23:46:09;47.70;;;12.60;;
